Saint Hedwig, TX

04:48 CDT le 30 septembre 2014 (GMT -0500)
San Antonio International | Change Station
CLOSE
Current Station
Aéroport
Location: San Antonio,
Altitude: 794 ft
Stations météo à proximité

Alt. 794 ft 29.53 °N, 98.47 °W | Updated 57 minutes ago

Partiellement nuageux
Partiellement nuageux
68 ° F
Paraît 68 ° F
N
5
Vent Variable Vent de ONO

Aujourd'hui
Haut(e) -- | Bas -- ° F
--% Risque de précip.
Hier
Haut(e) -- | Bas -- ° F
Precip. -- pouce
7:25 AM 7:19 PM
Lune montante, 35% visible
Pression 29.84 pouce
Visibilité 10.0 Miles terrestres
Nuages Ciel dégagé
Point de rosée 63 ° F
Humidité 84%
Précipitations 0.00 pouce
Profondeur de la couche neigeuse Non disponible.
UV 0 sur 12
Pollen 8.50 sur 12
Ozone Bon
PM2.5 Moyen
Flu Activity Non disponible.
METAR KSAT 300851Z 30004KT 10SM CLR 20/17 A2990 RMK AO2 SLP105 T02000172 58002

More Conditions Fewer Conditions

Pression 29.84 pouce
Visibilité 10.0 Miles terrestres
Nuages Ciel dégagé
Point de rosée 63 ° F
Humidité 84%
Précipitations 0.00 pouce
Profondeur de la couche neigeuse Non disponible.
UV 0 sur 12
Pollen 8.50 sur 12
Ozone Bon
PM2.5 Moyen
Flu Activity Non disponible.
METAR KSAT 300851Z 30004KT 10SM CLR 20/17 A2990 RMK AO2 SLP105 T02000172 58002

More Conditions Fewer Conditions

10-Day Weather Forecast

Almanac

Astronomie

Sep. 30, 2014 Lever Coucher
Temps réel 07:25 CDT 19:19 CDT
Crépuscule civil 07:01 CDT 19:43 CDT
Crépuscule nautique 06:34 CDT 20:10 CDT
Crépuscule astronomique 06:06 CDT 20:38 CDT
Lune 13:14 CDT Pas de coucher de lune
Durée de lumière visible 12h 41m
Longueur du jour
11h 54m
Tomorrow will be 1m 45s shorter.
Lune montante, 35% of the Moon is Illuminated
Aujourd'hui
Lune montante
Oct 1
Premier quartier
Oct 8
Pleine lune
Oct 15
Dernier quartier
Oct 23
Nouveau

Extrêmes aujourd'hui

State Highs State Lows

Community

WunderPhotos

Upload Photos

1,757,606 Photos téléchargées !

Nearby

Qualité de l'air

  Qualité de l'air Indice de la qualité de l'air Polluant
Hier Bon
OZONE
Hier Bon
PM2.5
Actuel Moyen
PM2.5
Actuel Bon
OZONE
mardi Moyen
OZONE
mardi Bon
PM10
mercredi Bon
OZONE
mercredi Bon
PM10
jeudi Bon
OZONE
jeudi Bon
PM10

Épaisseur de neige

Station Depth Altitude
Pas de nouvelles chutes de neige

Activité sismique

Ville Distance Mag. Time & Date
No recent earthquake activity has been reported nearby.
Minimum magnitude displayed is 2.5.

Températures des eaux côtières

Lieu Température
Aucun rapport de station

Stations météo à proximité